sensor_id;sensor_type;location;lat;lon;timestamp;pressure;altitude;pressure_sealevel;temperature;humidity
40794;BME280;26502;51.886;15.604;2023-03-18T00:01:58;100477.63;;;2.51;56.16
40794;BME280;26502;51.886;15.604;2023-03-18T00:07:04;100479.73;;;2.47;56.44
40794;BME280;26502;51.886;15.604;2023-03-18T00:12:10;100481.67;;;2.49;56.65
40794;BME280;26502;51.886;15.604;2023-03-18T00:17:17;100483.77;;;2.47;56.72
40794;BME280;26502;51.886;15.604;2023-03-18T00:22:23;100482.20;;;2.42;56.94
40794;BME280;26502;51.886;15.604;2023-03-18T00:27:29;100475.38;;;2.37;57.12
40794;BME280;26502;51.886;15.604;2023-03-18T00:32:36;100471.17;;;2.38;57.21
40794;BME280;26502;51.886;15.604;2023-03-18T00:37:42;100469.80;;;2.30;57.27
40794;BME280;26502;51.886;15.604;2023-03-18T00:42:48;100475.41;;;2.22;57.46
40794;BME280;26502;51.886;15.604;2023-03-18T00:48:01;100470.16;;;2.18;57.76
40794;BME280;26502;51.886;15.604;2023-03-18T00:53:07;100467.19;;;2.17;57.84
40794;BME280;26502;51.886;15.604;2023-03-18T00:58:14;100468.42;;;2.10;57.92
40794;BME280;26502;51.886;15.604;2023-03-18T01:03:20;100464.05;;;2.09;58.09
40794;BME280;26502;51.886;15.604;2023-03-18T01:08:29;100459.48;;;2.09;58.11
40794;BME280;26502;51.886;15.604;2023-03-18T01:13:36;100454.40;;;2.02;58.24
40794;BME280;26502;51.886;15.604;2023-03-18T01:18:43;100453.55;;;1.98;58.29
40794;BME280;26502;51.886;15.604;2023-03-18T01:23:49;100452.67;;;1.90;58.47
40794;BME280;26502;51.886;15.604;2023-03-18T01:28:55;100447.60;;;1.87;58.45
40794;BME280;26502;51.886;15.604;2023-03-18T01:34:01;100440.59;;;1.81;58.58
40794;BME280;26502;51.886;15.604;2023-03-18T01:39:16;100430.45;;;1.67;58.78
40794;BME280;26502;51.886;15.604;2023-03-18T01:44:23;100426.23;;;1.61;58.72
40794;BME280;26502;51.886;15.604;2023-03-18T01:49:32;100424.84;;;1.50;58.92
40794;BME280;26502;51.886;15.604;2023-03-18T01:54:44;100427.27;;;1.40;59.03
40794;BME280;26502;51.886;15.604;2023-03-18T01:59:50;100423.60;;;1.35;59.26
40794;BME280;26502;51.886;15.604;2023-03-18T02:05:00;100427.41;;;1.14;59.05
40794;BME280;26502;51.886;15.604;2023-03-18T02:10:11;100422.84;;;0.98;59.58
40794;BME280;26502;51.886;15.604;2023-03-18T02:15:20;100425.46;;;1.00;59.98
40794;BME280;26502;51.886;15.604;2023-03-18T02:20:42;100437.18;;;1.02;60.06
40794;BME280;26502;51.886;15.604;2023-03-18T02:26:02;100442.98;;;1.14;60.33
40794;BME280;26502;51.886;15.604;2023-03-18T02:31:12;100444.59;;;1.28;60.41
40794;BME280;26502;51.886;15.604;2023-03-18T02:36:25;100440.75;;;1.44;60.55
40794;BME280;26502;51.886;15.604;2023-03-18T02:41:34;100440.95;;;1.52;60.63
40794;BME280;26502;51.886;15.604;2023-03-18T02:46:50;100441.64;;;1.62;60.74
40794;BME280;26502;51.886;15.604;2023-03-18T02:51:58;100440.77;;;1.64;60.77
40794;BME280;26502;51.886;15.604;2023-03-18T02:57:05;100446.02;;;1.61;61.04
40794;BME280;26502;51.886;15.604;2023-03-18T03:02:14;100448.64;;;1.61;61.03
40794;BME280;26502;51.886;15.604;2023-03-18T03:07:20;100457.40;;;1.58;60.96
40794;BME280;26502;51.886;15.604;2023-03-18T03:12:28;100457.23;;;1.48;61.27
40794;BME280;26502;51.886;15.604;2023-03-18T03:17:35;100450.73;;;1.49;61.56
40794;BME280;26502;51.886;15.604;2023-03-18T03:22:42;100455.29;;;1.59;61.73
40794;BME280;26502;51.886;15.604;2023-03-18T03:27:48;100456.53;;;1.71;61.85
40794;BME280;26502;51.886;15.604;2023-03-18T03:32:55;100454.42;;;1.79;61.74
40794;BME280;26502;51.886;15.604;2023-03-18T03:38:01;100455.81;;;1.93;61.75
40794;BME280;26502;51.886;15.604;2023-03-18T03:43:09;100453.20;;;2.00;61.57
40794;BME280;26502;51.886;15.604;2023-03-18T03:48:16;100453.89;;;1.98;61.61
40794;BME280;26502;51.886;15.604;2023-03-18T03:53:22;100454.25;;;1.93;61.65
40794;BME280;26502;51.886;15.604;2023-03-18T03:58:29;100460.55;;;1.96;61.93
40794;BME280;26502;51.886;15.604;2023-03-18T04:03:35;100459.16;;;1.85;61.73
40794;BME280;26502;51.886;15.604;2023-03-18T04:08:43;100463.01;;;1.82;62.00
40794;BME280;26502;51.886;15.604;2023-03-18T04:13:49;100464.40;;;1.85;62.04
40794;BME280;26502;51.886;15.604;2023-03-18T04:18:56;100462.30;;;1.81;62.05
40794;BME280;26502;51.886;15.604;2023-03-18T04:24:03;100464.58;;;1.80;61.93
40794;BME280;26502;51.886;15.604;2023-03-18T04:29:09;100472.10;;;1.74;61.85
40794;BME280;26502;51.886;15.604;2023-03-18T04:34:16;100481.91;;;1.62;62.00
40794;BME280;26502;51.886;15.604;2023-03-18T04:39:23;100479.98;;;1.62;62.03
40794;BME280;26502;51.886;15.604;2023-03-18T04:44:30;100481.19;;;1.44;61.95
40794;BME280;26502;51.886;15.604;2023-03-18T04:49:37;100480.48;;;1.42;62.06
40794;BME280;26502;51.886;15.604;2023-03-18T04:54:44;100482.59;;;1.44;62.21
40794;BME280;26502;51.886;15.604;2023-03-18T04:59:50;100480.66;;;1.45;62.36
40794;BME280;26502;51.886;15.604;2023-03-18T05:04:56;100482.41;;;1.47;62.43
40794;BME280;26502;51.886;15.604;2023-03-18T05:10:05;100485.03;;;1.41;62.43
40794;BME280;26502;51.886;15.604;2023-03-18T05:15:12;100476.45;;;1.39;62.62
40794;BME280;26502;51.886;15.604;2023-03-18T05:20:23;100485.89;;;1.37;62.57
40794;BME280;26502;51.886;15.604;2023-03-18T05:25:29;100479.44;;;1.47;62.72
40794;BME280;26502;51.886;15.604;2023-03-18T05:30:36;100480.15;;;1.59;62.75
40794;BME280;26502;51.886;15.604;2023-03-18T05:35:44;100483.13;;;1.65;62.66
40794;BME280;26502;51.886;15.604;2023-03-18T05:40:51;100485.76;;;1.63;62.69
40794;BME280;26502;51.886;15.604;2023-03-18T05:46:01;100483.66;;;1.62;62.94
40794;BME280;26502;51.886;15.604;2023-03-18T05:51:43;100487.16;;;1.63;63.13
40794;BME280;26502;51.886;15.604;2023-03-18T05:56:52;100487.68;;;1.59;63.17
40794;BME280;26502;51.886;15.604;2023-03-18T06:01:59;100485.58;;;1.59;63.26
40794;BME280;26502;51.886;15.604;2023-03-18T06:07:06;100490.83;;;1.57;63.34
40794;BME280;26502;51.886;15.604;2023-03-18T06:12:12;100491.70;;;1.61;63.63
40794;BME280;26502;51.886;15.604;2023-03-18T06:17:20;100498.02;;;1.63;63.64
40794;BME280;26502;51.886;15.604;2023-03-18T06:22:27;100496.98;;;1.69;63.75
40794;BME280;26502;51.886;15.604;2023-03-18T06:27:34;100495.76;;;1.88;63.81
40794;BME280;26502;51.886;15.604;2023-03-18T06:32:41;100495.39;;;2.13;63.77
40794;BME280;26502;51.886;15.604;2023-03-18T06:37:47;100497.47;;;2.37;64.06
40794;BME280;26502;51.886;15.604;2023-03-18T06:42:54;100492.85;;;2.62;64.06
40794;BME280;26502;51.886;15.604;2023-03-18T06:48:15;100490.32;;;2.85;64.01
40794;BME280;26502;51.886;15.604;2023-03-18T06:53:22;100487.91;;;3.11;63.97
40794;BME280;26502;51.886;15.604;2023-03-18T06:58:29;100496.52;;;3.46;64.12
40794;BME280;26502;51.886;15.604;2023-03-18T07:03:40;100497.86;;;3.79;64.19
40794;BME280;26502;51.886;15.604;2023-03-18T07:08:48;100501.77;;;4.17;63.72
40794;BME280;26502;51.886;15.604;2023-03-18T07:13:54;100502.91;;;4.61;62.68
40794;BME280;26502;51.886;15.604;2023-03-18T07:19:05;100504.91;;;5.14;61.77
40794;BME280;26502;51.886;15.604;2023-03-18T07:24:12;100509.14;;;5.54;60.80
40794;BME280;26502;51.886;15.604;2023-03-18T07:29:19;100506.70;;;5.88;60.49
40794;BME280;26502;51.886;15.604;2023-03-18T07:34:25;100504.20;;;6.13;59.82
40794;BME280;26502;51.886;15.604;2023-03-18T07:39:31;100512.80;;;6.36;59.30
40794;BME280;26502;51.886;15.604;2023-03-18T07:44:38;100514.98;;;6.52;58.63
40794;BME280;26502;51.886;15.604;2023-03-18T07:49:44;100516.80;;;6.68;58.27
40794;BME280;26502;51.886;15.604;2023-03-18T07:54:50;100519.06;;;6.88;58.05
40794;BME280;26502;51.886;15.604;2023-03-18T07:59:57;100517.45;;;7.06;57.87
40794;BME280;26502;51.886;15.604;2023-03-18T08:05:04;100518.39;;;7.29;57.51
40794;BME280;26502;51.886;15.604;2023-03-18T08:10:13;100523.32;;;7.55;56.94
40794;BME280;26502;51.886;15.604;2023-03-18T08:15:19;100527.02;;;7.78;56.12
40794;BME280;26502;51.886;15.604;2023-03-18T08:20:25;100526.22;;;8.05;55.72
40794;BME280;26502;51.886;15.604;2023-03-18T08:25:32;100523.19;;;8.27;54.64
40794;BME280;26502;51.886;15.604;2023-03-18T08:30:40;100522.95;;;8.44;53.48
40794;BME280;26502;51.886;15.604;2023-03-18T08:35:47;100532.64;;;8.60;52.64
40794;BME280;26502;51.886;15.604;2023-03-18T08:40:55;100527.82;;;8.74;51.84
40794;BME280;26502;51.886;15.604;2023-03-18T08:46:02;100529.86;;;8.91;51.23
40794;BME280;26502;51.886;15.604;2023-03-18T08:51:08;100530.45;;;9.07;50.32
40794;BME280;26502;51.886;15.604;2023-03-18T08:56:14;100523.23;;;9.18;49.11
40794;BME280;26502;51.886;15.604;2023-03-18T09:01:20;100524.22;;;9.32;49.04
40794;BME280;26502;51.886;15.604;2023-03-18T09:06:29;100529.75;;;9.49;48.54
40794;BME280;26502;51.886;15.604;2023-03-18T09:11:35;100524.58;;;9.73;48.29
40794;BME280;26502;51.886;15.604;2023-03-18T09:16:42;100529.29;;;9.98;48.21
40794;BME280;26502;51.886;15.604;2023-03-18T09:21:49;100526.91;;;10.22;48.45
40794;BME280;26502;51.886;15.604;2023-03-18T09:26:55;100520.20;;;10.48;48.46
40794;BME280;26502;51.886;15.604;2023-03-18T09:32:03;100520.42;;;10.67;47.90
40794;BME280;26502;51.886;15.604;2023-03-18T09:37:10;100514.92;;;10.87;47.84
40794;BME280;26502;51.886;15.604;2023-03-18T09:42:29;100509.70;;;11.18;47.34
40794;BME280;26502;51.886;15.604;2023-03-18T09:47:54;100508.79;;;11.47;46.56
40794;BME280;26502;51.886;15.604;2023-03-18T09:53:14;100503.73;;;11.71;46.28
40794;BME280;26502;51.886;15.604;2023-03-18T09:58:26;100499.80;;;12.07;46.40
40794;BME280;26502;51.886;15.604;2023-03-18T10:03:35;100505.20;;;12.15;45.83
40794;BME280;26502;51.886;15.604;2023-03-18T10:08:47;100500.45;;;12.30;45.93
40794;BME280;26502;51.886;15.604;2023-03-18T10:14:07;100498.51;;;12.47;45.73
40794;BME280;26502;51.886;15.604;2023-03-18T10:19:15;100500.20;;;12.65;45.41
40794;BME280;26502;51.886;15.604;2023-03-18T10:24:26;100499.61;;;12.83;45.04
40794;BME280;26502;51.886;15.604;2023-03-18T10:29:41;100510.35;;;12.82;44.12
40794;BME280;26502;51.886;15.604;2023-03-18T10:34:59;100506.33;;;13.00;44.35
40794;BME280;26502;51.886;15.604;2023-03-18T10:40:14;100511.38;;;13.26;43.59
40794;BME280;26502;51.886;15.604;2023-03-18T10:45:26;100512.42;;;13.50;42.51
40794;BME280;26502;51.886;15.604;2023-03-18T10:50:36;100519.23;;;13.68;41.65
40794;BME280;26502;51.886;15.604;2023-03-18T10:55:52;100517.39;;;13.77;41.31
40794;BME280;26502;51.886;15.604;2023-03-18T11:01:00;100521.95;;;13.94;41.40
40794;BME280;26502;51.886;15.604;2023-03-18T11:06:10;100518.73;;;13.94;40.94
40794;BME280;26502;51.886;15.604;2023-03-18T11:11:27;100518.97;;;13.96;40.72
40794;BME280;26502;51.886;15.604;2023-03-18T11:16:39;100519.74;;;14.09;40.79
40794;BME280;26502;51.886;15.604;2023-03-18T11:21:45;100522.87;;;14.07;39.73
40794;BME280;26502;51.886;15.604;2023-03-18T11:26:55;100522.68;;;14.15;39.88
40794;BME280;26502;51.886;15.604;2023-03-18T11:32:02;100520.15;;;14.22;39.07
40794;BME280;26502;51.886;15.604;2023-03-18T11:37:11;100520.75;;;14.28;39.02
40794;BME280;26502;51.886;15.604;2023-03-18T11:42:20;100522.36;;;14.50;39.25
40794;BME280;26502;51.886;15.604;2023-03-18T11:47:29;100519.30;;;14.54;39.70
40794;BME280;26502;51.886;15.604;2023-03-18T11:52:45;100514.03;;;14.69;39.49
40794;BME280;26502;51.886;15.604;2023-03-18T12:04:01;100505.27;;;14.97;39.06
40794;BME280;26502;51.886;15.604;2023-03-18T12:09:21;100508.55;;;14.85;38.89
40794;BME280;26502;51.886;15.604;2023-03-18T12:14:35;100508.59;;;14.82;38.60
40794;BME280;26502;51.886;15.604;2023-03-18T12:19:58;100502.71;;;14.64;38.03
40794;BME280;26502;51.886;15.604;2023-03-18T12:25:21;100507.79;;;14.69;38.98
40794;BME280;26502;51.886;15.604;2023-03-18T12:30:51;100504.20;;;14.93;38.89
40794;BME280;26502;51.886;15.604;2023-03-18T12:36:11;100507.55;;;14.95;38.83
40794;BME280;26502;51.886;15.604;2023-03-18T12:41:24;100508.63;;;14.98;38.81
40794;BME280;26502;51.886;15.604;2023-03-18T12:46:37;100510.80;;;15.04;39.01
40794;BME280;26502;51.886;15.604;2023-03-18T12:51:49;100516.67;;;15.21;38.94
40794;BME280;26502;51.886;15.604;2023-03-18T12:57:00;100513.19;;;15.30;38.96
40794;BME280;26502;51.886;15.604;2023-03-18T13:02:32;100509.40;;;15.49;38.96
40794;BME280;26502;51.886;15.604;2023-03-18T13:07:43;100508.52;;;15.56;38.89
40794;BME280;26502;51.886;15.604;2023-03-18T13:12:54;100501.33;;;15.24;37.48
40794;BME280;26502;51.886;15.604;2023-03-18T13:18:11;100504.89;;;14.97;37.94
40794;BME280;26502;51.886;15.604;2023-03-18T13:23:27;100505.40;;;14.88;38.24
40794;BME280;26502;51.886;15.604;2023-03-18T13:28:49;100506.05;;;14.82;38.52
40794;BME280;26502;51.886;15.604;2023-03-18T13:34:23;100512.20;;;14.87;38.63
40794;BME280;26502;51.886;15.604;2023-03-18T13:45:21;100511.11;;;15.01;39.11
40794;BME280;26502;51.886;15.604;2023-03-18T13:50:34;100508.34;;;14.96;39.46
40794;BME280;26502;51.886;15.604;2023-03-18T13:55:48;100508.23;;;14.95;39.66
40794;BME280;26502;51.886;15.604;2023-03-18T14:01:13;100507.06;;;15.00;40.03
40794;BME280;26502;51.886;15.604;2023-03-18T14:06:22;100507.35;;;15.15;40.16
40794;BME280;26502;51.886;15.604;2023-03-18T14:11:45;100504.84;;;15.32;40.49
40794;BME280;26502;51.886;15.604;2023-03-18T14:16:52;100505.60;;;15.34;40.40
40794;BME280;26502;51.886;15.604;2023-03-18T14:22:12;100499.63;;;15.41;40.61
40794;BME280;26502;51.886;15.604;2023-03-18T14:27:21;100499.65;;;15.41;40.38
40794;BME280;26502;51.886;15.604;2023-03-18T14:32:39;100502.55;;;15.34;40.31
40794;BME280;26502;51.886;15.604;2023-03-18T14:37:59;100497.59;;;15.43;40.30
40794;BME280;26502;51.886;15.604;2023-03-18T14:43:10;100497.94;;;15.59;40.47
40794;BME280;26502;51.886;15.604;2023-03-18T14:48:25;100489.39;;;15.55;40.19
40794;BME280;26502;51.886;15.604;2023-03-18T14:53:35;100482.36;;;15.47;40.65
40794;BME280;26502;51.886;15.604;2023-03-18T14:58:45;100488.13;;;15.49;40.60
40794;BME280;26502;51.886;15.604;2023-03-18T15:03:52;100484.55;;;15.26;40.72
40794;BME280;26502;51.886;15.604;2023-03-18T15:09:05;100482.30;;;15.21;40.77
40794;BME280;26502;51.886;15.604;2023-03-18T15:14:19;100483.61;;;15.11;40.85
40794;BME280;26502;51.886;15.604;2023-03-18T15:19:27;100482.59;;;15.00;40.97
40794;BME280;26502;51.886;15.604;2023-03-18T15:24:34;100477.51;;;14.91;41.27
40794;BME280;26502;51.886;15.604;2023-03-18T15:29:47;100484.98;;;14.85;41.60
40794;BME280;26502;51.886;15.604;2023-03-18T15:35:04;100488.41;;;14.81;41.62
40794;BME280;26502;51.886;15.604;2023-03-18T15:40:28;100491.05;;;14.85;41.66
40794;BME280;26502;51.886;15.604;2023-03-18T15:45:35;100487.98;;;14.96;41.80
40794;BME280;26502;51.886;15.604;2023-03-18T15:50:54;100493.86;;;15.13;41.63
40794;BME280;26502;51.886;15.604;2023-03-18T15:56:12;100490.38;;;15.27;41.56
40794;BME280;26502;51.886;15.604;2023-03-18T16:01:19;100494.37;;;15.17;41.53
40794;BME280;26502;51.886;15.604;2023-03-18T16:06:26;100498.65;;;15.07;41.62
40794;BME280;26502;51.886;15.604;2023-03-18T16:11:32;100502.50;;;15.28;41.57
40794;BME280;26502;51.886;15.604;2023-03-18T16:16:41;100507.19;;;15.34;41.56
40794;BME280;26502;51.886;15.604;2023-03-18T16:21:47;100509.94;;;15.37;41.58
40794;BME280;26502;51.886;15.604;2023-03-18T16:26:55;100511.89;;;15.27;41.65
40794;BME280;26502;51.886;15.604;2023-03-18T16:32:03;100510.65;;;15.13;41.68
40794;BME280;26502;51.886;15.604;2023-03-18T16:37:19;100517.96;;;14.94;41.89
40794;BME280;26502;51.886;15.604;2023-03-18T16:42:26;100522.55;;;14.68;42.12
40794;BME280;26502;51.886;15.604;2023-03-18T16:47:32;100528.86;;;14.52;42.50
40794;BME280;26502;51.886;15.604;2023-03-18T16:52:38;100529.05;;;14.41;42.81
40794;BME280;26502;51.886;15.604;2023-03-18T16:57:48;100531.52;;;14.31;43.13
40794;BME280;26502;51.886;15.604;2023-03-18T17:02:53;100535.73;;;14.15;43.25
40794;BME280;26502;51.886;15.604;2023-03-18T17:08:00;100542.79;;;13.80;43.68
40794;BME280;26502;51.886;15.604;2023-03-18T17:13:09;100542.65;;;13.48;44.22
40794;BME280;26502;51.886;15.604;2023-03-18T17:18:19;100547.93;;;13.26;44.84
40794;BME280;26502;51.886;15.604;2023-03-18T17:23:26;100555.33;;;13.12;45.14
40794;BME280;26502;51.886;15.604;2023-03-18T17:28:37;100558.54;;;12.88;45.50
40794;BME280;26502;51.886;15.604;2023-03-18T17:33:44;100568.58;;;12.57;45.68
40794;BME280;26502;51.886;15.604;2023-03-18T17:38:51;100580.58;;;12.30;46.14
40794;BME280;26502;51.886;15.604;2023-03-18T17:44:04;100588.53;;;12.05;46.63
40794;BME280;26502;51.886;15.604;2023-03-18T17:49:18;100587.42;;;11.78;47.12
40794;BME280;26502;51.886;15.604;2023-03-18T17:54:25;100588.17;;;11.59;47.38
40794;BME280;26502;51.886;15.604;2023-03-18T17:59:32;100584.70;;;11.47;47.77
40794;BME280;26502;51.886;15.604;2023-03-18T18:04:38;100588.85;;;11.26;47.69
40794;BME280;26502;51.886;15.604;2023-03-18T18:09:46;100586.90;;;11.01;48.23
40794;BME280;26502;51.886;15.604;2023-03-18T18:14:52;100582.83;;;10.80;48.71
40794;BME280;26502;51.886;15.604;2023-03-18T18:19:59;100581.45;;;10.64;48.96
40794;BME280;26502;51.886;15.604;2023-03-18T18:25:08;100576.58;;;10.45;49.25
40794;BME280;26502;51.886;15.604;2023-03-18T18:30:20;100572.41;;;10.31;49.35
40794;BME280;26502;51.886;15.604;2023-03-18T18:35:27;100578.30;;;10.13;49.68
40794;BME280;26502;51.886;15.604;2023-03-18T18:40:32;100574.02;;;9.98;50.02
40794;BME280;26502;51.886;15.604;2023-03-18T18:45:39;100578.16;;;9.83;50.45
40794;BME280;26502;51.886;15.604;2023-03-18T18:50:46;100582.30;;;9.70;50.84
40794;BME280;26502;51.886;15.604;2023-03-18T18:55:53;100595.75;;;9.60;51.31
40794;BME280;26502;51.886;15.604;2023-03-18T19:01:00;100591.05;;;9.38;51.44
40794;BME280;26502;51.886;15.604;2023-03-18T19:06:17;100598.59;;;9.09;51.80
40794;BME280;26502;51.886;15.604;2023-03-18T19:11:36;100595.30;;;8.93;52.19
40794;BME280;26502;51.886;15.604;2023-03-18T19:16:42;100599.02;;;8.86;52.59
40794;BME280;26502;51.886;15.604;2023-03-18T19:21:49;100597.10;;;8.79;52.79
40794;BME280;26502;51.886;15.604;2023-03-18T19:26:56;100592.63;;;8.74;52.88
40794;BME280;26502;51.886;15.604;2023-03-18T19:32:03;100593.89;;;8.66;53.18
40794;BME280;26502;51.886;15.604;2023-03-18T19:37:15;100594.94;;;8.60;53.45
40794;BME280;26502;51.886;15.604;2023-03-18T19:42:22;100592.35;;;8.42;53.47
40794;BME280;26502;51.886;15.604;2023-03-18T19:47:29;100594.52;;;8.25;53.66
40794;BME280;26502;51.886;15.604;2023-03-18T19:52:35;100601.10;;;8.09;53.97
40794;BME280;26502;51.886;15.604;2023-03-18T19:57:43;100603.84;;;7.98;54.20
40794;BME280;26502;51.886;15.604;2023-03-18T20:02:51;100600.36;;;7.95;54.45
40794;BME280;26502;51.886;15.604;2023-03-18T20:07:59;100599.06;;;7.90;54.62
40794;BME280;26502;51.886;15.604;2023-03-18T20:13:05;100601.30;;;7.85;54.75
40794;BME280;26502;51.886;15.604;2023-03-18T20:18:16;100610.36;;;7.75;54.90
40794;BME280;26502;51.886;15.604;2023-03-18T20:23:25;100609.81;;;7.67;54.97
40794;BME280;26502;51.886;15.604;2023-03-18T20:28:34;100608.30;;;7.56;55.21
40794;BME280;26502;51.886;15.604;2023-03-18T20:33:42;100602.92;;;7.42;55.35
40794;BME280;26502;51.886;15.604;2023-03-18T20:38:48;100606.15;;;7.31;55.61
40794;BME280;26502;51.886;15.604;2023-03-18T20:43:55;100602.27;;;7.22;55.80
40794;BME280;26502;51.886;15.604;2023-03-18T20:49:01;100602.29;;;7.12;55.96
40794;BME280;26502;51.886;15.604;2023-03-18T20:54:16;100604.86;;;6.98;56.07
40794;BME280;26502;51.886;15.604;2023-03-18T20:59:22;100605.41;;;6.86;56.25
40794;BME280;26502;51.886;15.604;2023-03-18T21:04:28;100604.48;;;6.80;56.41
40794;BME280;26502;51.886;15.604;2023-03-18T21:09:34;100609.96;;;6.69;56.56
40794;BME280;26502;51.886;15.604;2023-03-18T21:14:41;100615.77;;;6.60;56.60
40794;BME280;26502;51.886;15.604;2023-03-18T21:19:49;100612.83;;;6.56;56.83
40794;BME280;26502;51.886;15.604;2023-03-18T21:24:56;100616.36;;;6.46;56.81
40794;BME280;26502;51.886;15.604;2023-03-18T21:30:02;100619.20;;;6.44;57.11
40794;BME280;26502;51.886;15.604;2023-03-18T21:35:15;100616.81;;;6.40;57.28
40794;BME280;26502;51.886;15.604;2023-03-18T21:40:23;100617.06;;;6.34;57.60
40794;BME280;26502;51.886;15.604;2023-03-18T21:45:30;100619.38;;;6.22;57.52
40794;BME280;26502;51.886;15.604;2023-03-18T21:50:37;100619.76;;;6.09;57.66
40794;BME280;26502;51.886;15.604;2023-03-18T21:55:43;100617.48;;;5.94;57.78
40794;BME280;26502;51.886;15.604;2023-03-18T22:00:52;100604.10;;;5.80;57.97
40794;BME280;26502;51.886;15.604;2023-03-18T22:05:57;100598.23;;;5.70;58.12
40794;BME280;26502;51.886;15.604;2023-03-18T22:11:04;100595.55;;;5.59;58.41
40794;BME280;26502;51.886;15.604;2023-03-18T22:16:13;100603.14;;;5.59;58.43
40794;BME280;26502;51.886;15.604;2023-03-18T22:21:23;100604.61;;;5.55;58.45
40794;BME280;26502;51.886;15.604;2023-03-18T22:26:30;100600.28;;;5.49;58.63
40794;BME280;26502;51.886;15.604;2023-03-18T22:31:37;100605.23;;;5.48;58.69
40794;BME280;26502;51.886;15.604;2023-03-18T22:36:45;100607.02;;;5.44;58.81
40794;BME280;26502;51.886;15.604;2023-03-18T22:41:51;100607.45;;;5.38;58.93
40794;BME280;26502;51.886;15.604;2023-03-18T22:46:57;100615.80;;;5.34;59.06
40794;BME280;26502;51.886;15.604;2023-03-18T22:52:03;100629.14;;;5.21;59.05
40794;BME280;26502;51.886;15.604;2023-03-18T22:57:14;100627.43;;;5.00;59.14
40794;BME280;26502;51.886;15.604;2023-03-18T23:02:23;100624.16;;;4.93;59.55
40794;BME280;26502;51.886;15.604;2023-03-18T23:07:32;100622.42;;;4.89;59.67
40794;BME280;26502;51.886;15.604;2023-03-18T23:12:39;100611.88;;;4.89;59.82
40794;BME280;26502;51.886;15.604;2023-03-18T23:17:46;100619.11;;;4.87;59.92
40794;BME280;26502;51.886;15.604;2023-03-18T23:22:52;100623.48;;;4.71;59.90
40794;BME280;26502;51.886;15.604;2023-03-18T23:27:58;100632.02;;;4.61;60.09
40794;BME280;26502;51.886;15.604;2023-03-18T23:33:04;100637.77;;;4.67;60.35
40794;BME280;26502;51.886;15.604;2023-03-18T23:38:12;100633.16;;;4.72;60.40
40794;BME280;26502;51.886;15.604;2023-03-18T23:43:20;100631.09;;;4.68;60.60
40794;BME280;26502;51.886;15.604;2023-03-18T23:48:26;100633.13;;;4.55;60.63
40794;BME280;26502;51.886;15.604;2023-03-18T23:53:32;100640.39;;;4.47;60.78
40794;BME280;26502;51.886;15.604;2023-03-18T23:58:38;100641.93;;;4.54;60.87
